Cedar Park's Hourly Summary for Sunday, July 8, 2018
Hour Temp
(f)
RH
(%)
Solar Rad.
(MJ/m2)
Rainfall
(in)
Wind
(mph)
7/8/2018 12:00 AM 70 97 0 0 0
7/8/2018 1:00 AM 69 98 0 0 0
7/8/2018 2:00 AM 69 98 0 0 0
7/8/2018 3:00 AM 69 99 0 0 0
7/8/2018 4:00 AM 69 99 0 0 0
7/8/2018 5:00 AM 69 99 0 0 0
7/8/2018 6:00 AM 69 99 0.01 0 0
7/8/2018 7:00 AM 71 99 0.34 0 0.15
7/8/2018 8:00 AM 75 96 0.99 0 1.35
7/8/2018 9:00 AM 78 82 1.58 0 1.97
7/8/2018 10:00 AM 81 75 2.1 0 1.97
7/8/2018 11:00 AM 83 68 2.1 0 1.91
7/8/2018 12:00 PM 85 60 2.92 0 1.94
7/8/2018 1:00 PM 87 54 3.08 0 2.71
7/8/2018 2:00 PM 87 50 3.08 0 3.02
7/8/2018 3:00 PM 87 57 2.31 0.11 3.02
7/8/2018 4:00 PM 82 83 1.26 0 2.32
7/8/2018 5:00 PM 79 83 0.44 0 0.37
7/8/2018 6:00 PM 83 81 0.46 0 1.17
7/8/2018 7:00 PM 83 64 0.5 0.12 3.46
7/8/2018 8:00 PM 76 96 0.5 0.11 3.46
7/8/2018 9:00 PM 75 96 0.03 0.01 1.71
7/8/2018 10:00 PM 75 96 0 0 0.38
7/8/2018 11:00 PM 75 95 0 0 0.38
Data Summary 76 84 21.70 0.35 1.30